sensor_id;sensor_type;location;lat;lon;timestamp;temperature;humidity
53748;DHT22;39655;53.210;5.768;2022-09-12T00:02:20;16.20;85.20
53748;DHT22;39655;53.210;5.768;2022-09-12T00:04:46;16.20;85.30
53748;DHT22;39655;53.210;5.768;2022-09-12T00:07:12;16.10;85.30
53748;DHT22;39655;53.210;5.768;2022-09-12T00:09:37;16.10;85.50
53748;DHT22;39655;53.210;5.768;2022-09-12T00:12:03;16.10;85.60
53748;DHT22;39655;53.210;5.768;2022-09-12T00:14:29;16.10;85.80
53748;DHT22;39655;53.210;5.768;2022-09-12T00:16:59;16.10;85.90
53748;DHT22;39655;53.210;5.768;2022-09-12T00:19:28;16.10;85.90
53748;DHT22;39655;53.210;5.768;2022-09-12T00:21:54;16.10;85.90
53748;DHT22;39655;53.210;5.768;2022-09-12T00:24:20;16.10;86.10
53748;DHT22;39655;53.210;5.768;2022-09-12T00:26:47;16.00;86.20
53748;DHT22;39655;53.210;5.768;2022-09-12T00:29:21;16.00;86.20
53748;DHT22;39655;53.210;5.768;2022-09-12T00:31:47;16.00;86.30
53748;DHT22;39655;53.210;5.768;2022-09-12T00:34:13;16.00;86.50
53748;DHT22;39655;53.210;5.768;2022-09-12T00:36:39;16.00;86.70
53748;DHT22;39655;53.210;5.768;2022-09-12T00:39:06;15.90;86.90
53748;DHT22;39655;53.210;5.768;2022-09-12T00:41:35;15.90;87.00
53748;DHT22;39655;53.210;5.768;2022-09-12T00:44:40;15.90;87.10
53748;DHT22;39655;53.210;5.768;2022-09-12T00:46:53;15.90;87.30
53748;DHT22;39655;53.210;5.768;2022-09-12T00:49:45;15.90;87.40
53748;DHT22;39655;53.210;5.768;2022-09-12T00:57:47;15.80;87.70
53748;DHT22;39655;53.210;5.768;2022-09-12T01:00:17;15.80;88.00
53748;DHT22;39655;53.210;5.768;2022-09-12T01:02:47;15.80;88.30
53748;DHT22;39655;53.210;5.768;2022-09-12T01:05:13;15.80;88.30
53748;DHT22;39655;53.210;5.768;2022-09-12T01:07:40;15.80;88.30
53748;DHT22;39655;53.210;5.768;2022-09-12T01:10:07;15.80;88.30
53748;DHT22;39655;53.210;5.768;2022-09-12T01:12:34;15.80;88.40
53748;DHT22;39655;53.210;5.768;2022-09-12T01:15:02;15.80;88.50
53748;DHT22;39655;53.210;5.768;2022-09-12T01:17:34;15.80;88.50
53748;DHT22;39655;53.210;5.768;2022-09-12T01:28:27;15.80;88.80
53748;DHT22;39655;53.210;5.768;2022-09-12T01:31:13;15.80;88.90
53748;DHT22;39655;53.210;5.768;2022-09-12T01:37:02;15.80;89.00
53748;DHT22;39655;53.210;5.768;2022-09-12T01:45:17;15.80;88.90
53748;DHT22;39655;53.210;5.768;2022-09-12T01:47:49;15.90;88.80
53748;DHT22;39655;53.210;5.768;2022-09-12T01:50:24;15.80;88.80
53748;DHT22;39655;53.210;5.768;2022-09-12T01:53:05;15.80;88.90
53748;DHT22;39655;53.210;5.768;2022-09-12T01:56:19;15.80;88.80
53748;DHT22;39655;53.210;5.768;2022-09-12T01:58:28;15.90;89.00
53748;DHT22;39655;53.210;5.768;2022-09-12T02:01:08;15.80;88.90
53748;DHT22;39655;53.210;5.768;2022-09-12T02:03:54;15.80;88.90
53748;DHT22;39655;53.210;5.768;2022-09-12T02:06:29;15.80;88.90
53748;DHT22;39655;53.210;5.768;2022-09-12T02:09:04;15.70;89.00
53748;DHT22;39655;53.210;5.768;2022-09-12T02:11:33;15.70;89.10
53748;DHT22;39655;53.210;5.768;2022-09-12T02:14:07;15.70;89.20
53748;DHT22;39655;53.210;5.768;2022-09-12T02:16:45;15.80;89.20
53748;DHT22;39655;53.210;5.768;2022-09-12T02:19:22;15.70;89.40
53748;DHT22;39655;53.210;5.768;2022-09-12T02:21:52;15.80;89.60
53748;DHT22;39655;53.210;5.768;2022-09-12T02:24:20;15.70;89.80
53748;DHT22;39655;53.210;5.768;2022-09-12T02:26:51;15.80;89.90
53748;DHT22;39655;53.210;5.768;2022-09-12T02:29:17;15.70;89.80
53748;DHT22;39655;53.210;5.768;2022-09-12T02:31:51;15.70;89.80
53748;DHT22;39655;53.210;5.768;2022-09-12T02:34:41;15.70;89.70
53748;DHT22;39655;53.210;5.768;2022-09-12T02:37:29;15.70;89.80
53748;DHT22;39655;53.210;5.768;2022-09-12T02:39:58;15.60;89.90
53748;DHT22;39655;53.210;5.768;2022-09-12T02:42:24;15.60;90.00
53748;DHT22;39655;53.210;5.768;2022-09-12T02:44:52;15.60;90.10
53748;DHT22;39655;53.210;5.768;2022-09-12T02:47:29;15.60;90.20
53748;DHT22;39655;53.210;5.768;2022-09-12T02:49:57;15.60;90.20
53748;DHT22;39655;53.210;5.768;2022-09-12T02:52:24;15.50;90.20
53748;DHT22;39655;53.210;5.768;2022-09-12T02:54:51;15.50;90.20
53748;DHT22;39655;53.210;5.768;2022-09-12T02:57:19;15.50;90.20
53748;DHT22;39655;53.210;5.768;2022-09-12T02:59:45;15.50;90.30
53748;DHT22;39655;53.210;5.768;2022-09-12T03:05:15;15.40;90.30
53748;DHT22;39655;53.210;5.768;2022-09-12T03:10:26;15.40;90.30
53748;DHT22;39655;53.210;5.768;2022-09-12T03:13:15;15.40;90.40
53748;DHT22;39655;53.210;5.768;2022-09-12T03:24:10;15.40;90.30
53748;DHT22;39655;53.210;5.768;2022-09-12T03:27:10;15.40;90.30
53748;DHT22;39655;53.210;5.768;2022-09-12T03:29:34;15.40;90.30
53748;DHT22;39655;53.210;5.768;2022-09-12T03:32:01;15.40;90.50
53748;DHT22;39655;53.210;5.768;2022-09-12T03:34:27;15.40;90.40
53748;DHT22;39655;53.210;5.768;2022-09-12T03:36:53;15.40;90.50
53748;DHT22;39655;53.210;5.768;2022-09-12T03:39:23;15.40;90.50
53748;DHT22;39655;53.210;5.768;2022-09-12T03:41:49;15.50;90.50
53748;DHT22;39655;53.210;5.768;2022-09-12T03:44:16;15.50;90.50
53748;DHT22;39655;53.210;5.768;2022-09-12T03:46:42;15.50;90.50
53748;DHT22;39655;53.210;5.768;2022-09-12T03:49:07;15.50;90.50
53748;DHT22;39655;53.210;5.768;2022-09-12T03:51:33;15.60;90.50
53748;DHT22;39655;53.210;5.768;2022-09-12T03:53:59;15.60;90.30
53748;DHT22;39655;53.210;5.768;2022-09-12T03:56:25;15.60;90.20
53748;DHT22;39655;53.210;5.768;2022-09-12T03:58:51;15.60;90.10
53748;DHT22;39655;53.210;5.768;2022-09-12T04:01:19;15.60;90.10
53748;DHT22;39655;53.210;5.768;2022-09-12T04:03:47;15.70;90.00
53748;DHT22;39655;53.210;5.768;2022-09-12T04:06:17;15.70;89.90
53748;DHT22;39655;53.210;5.768;2022-09-12T04:08:51;15.70;89.80
53748;DHT22;39655;53.210;5.768;2022-09-12T04:11:19;15.70;89.80
53748;DHT22;39655;53.210;5.768;2022-09-12T04:13:46;15.70;89.70
53748;DHT22;39655;53.210;5.768;2022-09-12T04:16:13;15.70;89.70
53748;DHT22;39655;53.210;5.768;2022-09-12T04:18:39;15.70;89.70
53748;DHT22;39655;53.210;5.768;2022-09-12T04:21:07;15.70;89.70
53748;DHT22;39655;53.210;5.768;2022-09-12T04:23:41;15.70;89.70
53748;DHT22;39655;53.210;5.768;2022-09-12T04:26:10;15.60;89.70
53748;DHT22;39655;53.210;5.768;2022-09-12T04:28:38;15.70;89.80
53748;DHT22;39655;53.210;5.768;2022-09-12T04:31:17;15.70;89.70
53748;DHT22;39655;53.210;5.768;2022-09-12T04:33:45;15.60;89.80
53748;DHT22;39655;53.210;5.768;2022-09-12T04:36:15;15.60;89.70
53748;DHT22;39655;53.210;5.768;2022-09-12T04:38:46;15.60;89.60
53748;DHT22;39655;53.210;5.768;2022-09-12T04:41:18;15.60;89.60
53748;DHT22;39655;53.210;5.768;2022-09-12T04:43:45;15.60;89.50
53748;DHT22;39655;53.210;5.768;2022-09-12T04:46:13;15.60;89.40
53748;DHT22;39655;53.210;5.768;2022-09-12T04:48:39;15.60;89.50
53748;DHT22;39655;53.210;5.768;2022-09-12T04:51:08;15.60;89.60
53748;DHT22;39655;53.210;5.768;2022-09-12T04:53:34;15.50;89.50
53748;DHT22;39655;53.210;5.768;2022-09-12T04:56:05;15.60;89.60
53748;DHT22;39655;53.210;5.768;2022-09-12T04:58:32;15.50;89.60
53748;DHT22;39655;53.210;5.768;2022-09-12T05:01:16;15.50;89.60
53748;DHT22;39655;53.210;5.768;2022-09-12T05:03:43;15.50;89.60
53748;DHT22;39655;53.210;5.768;2022-09-12T05:06:21;15.50;89.50
53748;DHT22;39655;53.210;5.768;2022-09-12T05:08:50;15.50;89.60
53748;DHT22;39655;53.210;5.768;2022-09-12T05:11:19;15.50;89.50
53748;DHT22;39655;53.210;5.768;2022-09-12T05:13:45;15.50;89.50
53748;DHT22;39655;53.210;5.768;2022-09-12T05:16:12;15.50;89.50
53748;DHT22;39655;53.210;5.768;2022-09-12T05:18:43;15.50;89.50
53748;DHT22;39655;53.210;5.768;2022-09-12T05:21:13;15.50;89.40
53748;DHT22;39655;53.210;5.768;2022-09-12T05:23:39;15.50;89.30
53748;DHT22;39655;53.210;5.768;2022-09-12T05:26:06;15.50;89.30
53748;DHT22;39655;53.210;5.768;2022-09-12T05:28:34;15.50;89.30
53748;DHT22;39655;53.210;5.768;2022-09-12T05:31:03;15.50;89.30
53748;DHT22;39655;53.210;5.768;2022-09-12T05:33:30;15.50;89.50
53748;DHT22;39655;53.210;5.768;2022-09-12T05:35:56;15.50;89.40
53748;DHT22;39655;53.210;5.768;2022-09-12T05:38:22;15.50;89.30
53748;DHT22;39655;53.210;5.768;2022-09-12T05:40:52;15.50;89.30
53748;DHT22;39655;53.210;5.768;2022-09-12T05:43:19;15.50;89.30
53748;DHT22;39655;53.210;5.768;2022-09-12T05:45:45;15.40;89.40
53748;DHT22;39655;53.210;5.768;2022-09-12T05:48:11;15.50;89.40
53748;DHT22;39655;53.210;5.768;2022-09-12T05:50:37;15.50;89.40
53748;DHT22;39655;53.210;5.768;2022-09-12T05:53:02;15.50;89.40
53748;DHT22;39655;53.210;5.768;2022-09-12T05:55:31;15.50;89.30
53748;DHT22;39655;53.210;5.768;2022-09-12T05:58:06;15.50;89.40
53748;DHT22;39655;53.210;5.768;2022-09-12T06:00:32;15.50;89.30
53748;DHT22;39655;53.210;5.768;2022-09-12T06:02:58;15.50;89.30
53748;DHT22;39655;53.210;5.768;2022-09-12T06:05:23;15.50;89.30
53748;DHT22;39655;53.210;5.768;2022-09-12T06:07:49;15.50;89.40
53748;DHT22;39655;53.210;5.768;2022-09-12T06:10:17;15.50;89.40
53748;DHT22;39655;53.210;5.768;2022-09-12T06:12:43;15.60;89.30
53748;DHT22;39655;53.210;5.768;2022-09-12T06:15:11;15.60;89.50
53748;DHT22;39655;53.210;5.768;2022-09-12T06:17:38;15.70;89.60
53748;DHT22;39655;53.210;5.768;2022-09-12T06:20:04;15.70;89.40
53748;DHT22;39655;53.210;5.768;2022-09-12T06:22:30;15.80;89.50
53748;DHT22;39655;53.210;5.768;2022-09-12T06:24:56;15.90;89.20
53748;DHT22;39655;53.210;5.768;2022-09-12T06:27:21;16.00;89.20
53748;DHT22;39655;53.210;5.768;2022-09-12T06:29:47;16.00;89.10
53748;DHT22;39655;53.210;5.768;2022-09-12T06:32:13;16.10;88.70
53748;DHT22;39655;53.210;5.768;2022-09-12T06:34:39;16.10;88.50
53748;DHT22;39655;53.210;5.768;2022-09-12T06:37:04;16.00;88.30
53748;DHT22;39655;53.210;5.768;2022-09-12T06:39:30;16.00;88.30
53748;DHT22;39655;53.210;5.768;2022-09-12T06:41:56;16.00;88.10
53748;DHT22;39655;53.210;5.768;2022-09-12T06:44:22;16.00;88.30
53748;DHT22;39655;53.210;5.768;2022-09-12T06:46:48;16.00;88.30
53748;DHT22;39655;53.210;5.768;2022-09-12T06:49:15;16.10;88.40
53748;DHT22;39655;53.210;5.768;2022-09-12T06:51:41;16.00;88.50
53748;DHT22;39655;53.210;5.768;2022-09-12T06:54:08;16.00;88.40
53748;DHT22;39655;53.210;5.768;2022-09-12T06:56:34;16.00;88.50
53748;DHT22;39655;53.210;5.768;2022-09-12T06:59:00;16.00;88.40
53748;DHT22;39655;53.210;5.768;2022-09-12T07:01:28;16.10;88.30
53748;DHT22;39655;53.210;5.768;2022-09-12T07:03:55;16.10;88.30
53748;DHT22;39655;53.210;5.768;2022-09-12T07:06:25;16.10;88.30
53748;DHT22;39655;53.210;5.768;2022-09-12T07:09:00;16.10;88.30
53748;DHT22;39655;53.210;5.768;2022-09-12T07:11:29;16.10;88.10
53748;DHT22;39655;53.210;5.768;2022-09-12T07:13:57;16.20;87.90
53748;DHT22;39655;53.210;5.768;2022-09-12T07:16:24;16.20;87.80
53748;DHT22;39655;53.210;5.768;2022-09-12T07:18:58;16.30;87.90
53748;DHT22;39655;53.210;5.768;2022-09-12T07:21:24;16.40;88.00
53748;DHT22;39655;53.210;5.768;2022-09-12T07:23:50;16.50;87.80
53748;DHT22;39655;53.210;5.768;2022-09-12T07:26:17;16.50;87.40
53748;DHT22;39655;53.210;5.768;2022-09-12T07:28:43;16.60;87.10
53748;DHT22;39655;53.210;5.768;2022-09-12T07:31:11;16.60;86.90
53748;DHT22;39655;53.210;5.768;2022-09-12T07:33:38;16.80;87.10
53748;DHT22;39655;53.210;5.768;2022-09-12T07:36:06;16.80;86.80
53748;DHT22;39655;53.210;5.768;2022-09-12T07:38:33;16.90;86.70
53748;DHT22;39655;53.210;5.768;2022-09-12T07:40:59;16.90;86.40
53748;DHT22;39655;53.210;5.768;2022-09-12T07:43:26;17.00;86.40
53748;DHT22;39655;53.210;5.768;2022-09-12T07:45:56;17.00;86.10
53748;DHT22;39655;53.210;5.768;2022-09-12T07:48:22;17.10;86.00
53748;DHT22;39655;53.210;5.768;2022-09-12T07:51:01;17.10;85.80
53748;DHT22;39655;53.210;5.768;2022-09-12T07:53:33;17.20;85.30
53748;DHT22;39655;53.210;5.768;2022-09-12T07:56:00;17.20;85.20
53748;DHT22;39655;53.210;5.768;2022-09-12T07:58:27;17.30;85.60
53748;DHT22;39655;53.210;5.768;2022-09-12T08:00:53;17.40;84.90
53748;DHT22;39655;53.210;5.768;2022-09-12T08:03:19;17.40;84.70
53748;DHT22;39655;53.210;5.768;2022-09-12T08:05:45;17.50;84.60
53748;DHT22;39655;53.210;5.768;2022-09-12T08:08:11;17.50;84.50
53748;DHT22;39655;53.210;5.768;2022-09-12T08:10:37;17.60;84.60
53748;DHT22;39655;53.210;5.768;2022-09-12T08:13:02;17.70;84.40
53748;DHT22;39655;53.210;5.768;2022-09-12T08:15:28;17.70;84.10
53748;DHT22;39655;53.210;5.768;2022-09-12T08:17:55;17.80;84.10
53748;DHT22;39655;53.210;5.768;2022-09-12T08:20:21;18.00;84.20
53748;DHT22;39655;53.210;5.768;2022-09-12T08:22:46;18.10;83.90
53748;DHT22;39655;53.210;5.768;2022-09-12T08:25:12;18.20;83.60
53748;DHT22;39655;53.210;5.768;2022-09-12T08:27:37;18.20;83.30
53748;DHT22;39655;53.210;5.768;2022-09-12T08:30:04;18.20;82.50
53748;DHT22;39655;53.210;5.768;2022-09-12T08:32:30;18.20;82.70
53748;DHT22;39655;53.210;5.768;2022-09-12T08:34:56;18.30;82.80
53748;DHT22;39655;53.210;5.768;2022-09-12T08:37:22;18.20;82.90
53748;DHT22;39655;53.210;5.768;2022-09-12T08:39:48;18.30;82.70
53748;DHT22;39655;53.210;5.768;2022-09-12T08:45:50;18.30;83.10
53748;DHT22;39655;53.210;5.768;2022-09-12T08:48:18;18.30;82.80
53748;DHT22;39655;53.210;5.768;2022-09-12T08:50:44;18.40;83.10
53748;DHT22;39655;53.210;5.768;2022-09-12T08:53:15;18.50;82.90
53748;DHT22;39655;53.210;5.768;2022-09-12T08:55:45;18.60;82.00
53748;DHT22;39655;53.210;5.768;2022-09-12T08:58:14;18.60;82.00
53748;DHT22;39655;53.210;5.768;2022-09-12T09:06:29;18.60;82.50
53748;DHT22;39655;53.210;5.768;2022-09-12T09:12:28;18.80;82.40
53748;DHT22;39655;53.210;5.768;2022-09-12T09:18:07;19.10;81.60
53748;DHT22;39655;53.210;5.768;2022-09-12T09:25:50;19.60;79.00
53748;DHT22;39655;53.210;5.768;2022-09-12T09:28:52;19.80;78.30
53748;DHT22;39655;53.210;5.768;2022-09-12T09:31:21;19.90;78.10
53748;DHT22;39655;53.210;5.768;2022-09-12T09:33:48;19.90;76.80
53748;DHT22;39655;53.210;5.768;2022-09-12T09:39:24;19.90;76.10
53748;DHT22;39655;53.210;5.768;2022-09-12T09:42:13;19.90;76.60
53748;DHT22;39655;53.210;5.768;2022-09-12T09:44:41;20.00;76.70
53748;DHT22;39655;53.210;5.768;2022-09-12T09:47:10;20.00;76.30
53748;DHT22;39655;53.210;5.768;2022-09-12T09:49:37;20.10;76.00
53748;DHT22;39655;53.210;5.768;2022-09-12T09:52:05;20.10;76.10
53748;DHT22;39655;53.210;5.768;2022-09-12T09:54:42;20.10;76.40
53748;DHT22;39655;53.210;5.768;2022-09-12T10:00:25;20.20;77.40
53748;DHT22;39655;53.210;5.768;2022-09-12T10:05:52;20.30;75.00
53748;DHT22;39655;53.210;5.768;2022-09-12T10:08:29;20.40;73.40
53748;DHT22;39655;53.210;5.768;2022-09-12T10:10:56;20.50;72.90
53748;DHT22;39655;53.210;5.768;2022-09-12T10:16:08;20.60;72.50
53748;DHT22;39655;53.210;5.768;2022-09-12T10:18:41;20.70;71.90
53748;DHT22;39655;53.210;5.768;2022-09-12T10:21:20;20.80;71.30
53748;DHT22;39655;53.210;5.768;2022-09-12T10:23:52;20.80;70.80
53748;DHT22;39655;53.210;5.768;2022-09-12T10:26:23;20.90;70.40
53748;DHT22;39655;53.210;5.768;2022-09-12T10:28:53;20.90;70.20
53748;DHT22;39655;53.210;5.768;2022-09-12T10:31:30;21.00;67.50
53748;DHT22;39655;53.210;5.768;2022-09-12T10:34:00;21.10;68.70
53748;DHT22;39655;53.210;5.768;2022-09-12T10:36:35;21.10;70.50
53748;DHT22;39655;53.210;5.768;2022-09-12T10:39:02;21.30;69.00
53748;DHT22;39655;53.210;5.768;2022-09-12T10:41:35;21.40;68.80
53748;DHT22;39655;53.210;5.768;2022-09-12T10:44:06;21.50;68.90
53748;DHT22;39655;53.210;5.768;2022-09-12T10:46:34;21.60;69.30
53748;DHT22;39655;53.210;5.768;2022-09-12T10:51:55;21.90;68.00
53748;DHT22;39655;53.210;5.768;2022-09-12T10:54:25;21.90;67.40
53748;DHT22;39655;53.210;5.768;2022-09-12T10:57:21;22.00;66.60
53748;DHT22;39655;53.210;5.768;2022-09-12T11:02:51;22.10;63.00
53748;DHT22;39655;53.210;5.768;2022-09-12T11:08:17;21.90;64.80
53748;DHT22;39655;53.210;5.768;2022-09-12T11:22:24;22.50;63.10
53748;DHT22;39655;53.210;5.768;2022-09-12T11:30:14;22.70;63.40
53748;DHT22;39655;53.210;5.768;2022-09-12T11:35:36;23.00;62.10
53748;DHT22;39655;53.210;5.768;2022-09-12T11:41:10;23.10;60.60
53748;DHT22;39655;53.210;5.768;2022-09-12T11:46:20;23.20;62.10
53748;DHT22;39655;53.210;5.768;2022-09-12T11:48:48;23.10;60.30
53748;DHT22;39655;53.210;5.768;2022-09-12T11:51:41;23.10;60.50
53748;DHT22;39655;53.210;5.768;2022-09-12T11:54:11;23.00;59.60
53748;DHT22;39655;53.210;5.768;2022-09-12T11:56:44;23.00;60.90
53748;DHT22;39655;53.210;5.768;2022-09-12T11:59:33;22.90;60.60
53748;DHT22;39655;53.210;5.768;2022-09-12T12:02:01;23.00;61.10
53748;DHT22;39655;53.210;5.768;2022-09-12T12:04:43;23.10;60.40
53748;DHT22;39655;53.210;5.768;2022-09-12T12:07:11;23.00;61.70
53748;DHT22;39655;53.210;5.768;2022-09-12T12:09:50;23.10;60.90
53748;DHT22;39655;53.210;5.768;2022-09-12T12:12:24;23.20;61.10
53748;DHT22;39655;53.210;5.768;2022-09-12T12:14:52;23.40;61.10
53748;DHT22;39655;53.210;5.768;2022-09-12T12:17:21;23.60;61.40
53748;DHT22;39655;53.210;5.768;2022-09-12T12:19:59;23.70;60.30
53748;DHT22;39655;53.210;5.768;2022-09-12T12:22:25;23.60;59.00
53748;DHT22;39655;53.210;5.768;2022-09-12T12:27:56;23.60;60.10
53748;DHT22;39655;53.210;5.768;2022-09-12T12:32:59;23.80;59.30
53748;DHT22;39655;53.210;5.768;2022-09-12T12:38:29;23.80;57.90
53748;DHT22;39655;53.210;5.768;2022-09-12T12:43:47;24.10;56.80
53748;DHT22;39655;53.210;5.768;2022-09-12T12:46:17;24.20;57.10
53748;DHT22;39655;53.210;5.768;2022-09-12T12:51:34;24.10;57.50
53748;DHT22;39655;53.210;5.768;2022-09-12T12:54:25;24.00;57.60
53748;DHT22;39655;53.210;5.768;2022-09-12T12:57:45;23.90;58.10
53748;DHT22;39655;53.210;5.768;2022-09-12T12:59:54;23.80;56.70
53748;DHT22;39655;53.210;5.768;2022-09-12T13:02:29;23.70;57.10
53748;DHT22;39655;53.210;5.768;2022-09-12T13:04:58;23.70;57.80
53748;DHT22;39655;53.210;5.768;2022-09-12T13:07:34;23.80;57.80
53748;DHT22;39655;53.210;5.768;2022-09-12T13:10:01;24.00;57.30
53748;DHT22;39655;53.210;5.768;2022-09-12T13:12:34;24.20;56.70
53748;DHT22;39655;53.210;5.768;2022-09-12T13:16:07;24.20;57.20
53748;DHT22;39655;53.210;5.768;2022-09-12T13:18:22;24.10;57.30
53748;DHT22;39655;53.210;5.768;2022-09-12T13:21:09;24.20;57.10
53748;DHT22;39655;53.210;5.768;2022-09-12T13:23:36;24.40;56.20
53748;DHT22;39655;53.210;5.768;2022-09-12T13:26:03;24.50;55.50
53748;DHT22;39655;53.210;5.768;2022-09-12T13:28:30;24.60;55.00
53748;DHT22;39655;53.210;5.768;2022-09-12T13:42:12;25.00;54.60
53748;DHT22;39655;53.210;5.768;2022-09-12T13:47:59;25.00;54.80
53748;DHT22;39655;53.210;5.768;2022-09-12T13:50:41;24.80;54.80
53748;DHT22;39655;53.210;5.768;2022-09-12T13:53:16;24.90;54.40
53748;DHT22;39655;53.210;5.768;2022-09-12T13:55:46;24.90;53.70
53748;DHT22;39655;53.210;5.768;2022-09-12T13:58:31;25.10;53.50
53748;DHT22;39655;53.210;5.768;2022-09-12T14:01:12;25.20;53.10
53748;DHT22;39655;53.210;5.768;2022-09-12T14:06:26;25.30;54.20
53748;DHT22;39655;53.210;5.768;2022-09-12T14:08:53;25.20;54.60
53748;DHT22;39655;53.210;5.768;2022-09-12T14:11:29;25.40;55.90
53748;DHT22;39655;53.210;5.768;2022-09-12T14:13:55;25.60;55.70
53748;DHT22;39655;53.210;5.768;2022-09-12T14:16:22;25.70;54.00
53748;DHT22;39655;53.210;5.768;2022-09-12T14:18:49;25.80;54.10
53748;DHT22;39655;53.210;5.768;2022-09-12T14:23:55;26.10;52.60
53748;DHT22;39655;53.210;5.768;2022-09-12T14:26:22;25.90;52.30
53748;DHT22;39655;53.210;5.768;2022-09-12T14:28:49;25.80;53.10
53748;DHT22;39655;53.210;5.768;2022-09-12T14:31:21;25.70;53.70
53748;DHT22;39655;53.210;5.768;2022-09-12T14:33:49;25.60;54.10
53748;DHT22;39655;53.210;5.768;2022-09-12T14:36:16;25.60;54.30
53748;DHT22;39655;53.210;5.768;2022-09-12T14:38:45;25.40;53.60
53748;DHT22;39655;53.210;5.768;2022-09-12T14:41:24;25.40;54.30
53748;DHT22;39655;53.210;5.768;2022-09-12T14:43:54;25.60;54.10
53748;DHT22;39655;53.210;5.768;2022-09-12T14:49:06;25.90;52.20
53748;DHT22;39655;53.210;5.768;2022-09-12T14:51:39;25.90;51.60
53748;DHT22;39655;53.210;5.768;2022-09-12T14:57:03;26.10;50.80
53748;DHT22;39655;53.210;5.768;2022-09-12T14:59:37;26.00;51.90
53748;DHT22;39655;53.210;5.768;2022-09-12T15:04:43;25.90;52.70
53748;DHT22;39655;53.210;5.768;2022-09-12T15:10:13;25.60;53.80
53748;DHT22;39655;53.210;5.768;2022-09-12T15:12:40;25.60;53.90
53748;DHT22;39655;53.210;5.768;2022-09-12T15:15:13;25.60;53.70
53748;DHT22;39655;53.210;5.768;2022-09-12T15:17:39;25.70;52.40
53748;DHT22;39655;53.210;5.768;2022-09-12T15:20:05;25.70;52.80
53748;DHT22;39655;53.210;5.768;2022-09-12T15:22:31;25.70;53.00
53748;DHT22;39655;53.210;5.768;2022-09-12T15:24:58;25.90;53.10
53748;DHT22;39655;53.210;5.768;2022-09-12T15:27:24;26.00;52.30
53748;DHT22;39655;53.210;5.768;2022-09-12T15:29:54;26.30;52.40
53748;DHT22;39655;53.210;5.768;2022-09-12T15:32:26;26.20;51.60
53748;DHT22;39655;53.210;5.768;2022-09-12T15:34:52;26.10;52.70
53748;DHT22;39655;53.210;5.768;2022-09-12T15:37:20;26.10;53.50
53748;DHT22;39655;53.210;5.768;2022-09-12T15:39:46;26.20;52.60
53748;DHT22;39655;53.210;5.768;2022-09-12T15:42:13;26.30;52.60
53748;DHT22;39655;53.210;5.768;2022-09-12T15:44:39;26.10;51.80
53748;DHT22;39655;53.210;5.768;2022-09-12T15:47:05;25.90;52.10
53748;DHT22;39655;53.210;5.768;2022-09-12T15:49:32;25.70;52.20
53748;DHT22;39655;53.210;5.768;2022-09-12T15:51:58;25.80;52.90
53748;DHT22;39655;53.210;5.768;2022-09-12T15:54:24;25.80;52.60
53748;DHT22;39655;53.210;5.768;2022-09-12T15:56:51;25.80;53.60
53748;DHT22;39655;53.210;5.768;2022-09-12T15:59:16;25.80;52.50
53748;DHT22;39655;53.210;5.768;2022-09-12T16:01:42;25.70;52.50
53748;DHT22;39655;53.210;5.768;2022-09-12T16:04:24;25.80;52.60
53748;DHT22;39655;53.210;5.768;2022-09-12T16:06:51;25.90;52.30
53748;DHT22;39655;53.210;5.768;2022-09-12T16:09:17;26.10;52.80
53748;DHT22;39655;53.210;5.768;2022-09-12T16:11:43;26.10;51.50
53748;DHT22;39655;53.210;5.768;2022-09-12T16:14:18;26.00;51.60
53748;DHT22;39655;53.210;5.768;2022-09-12T16:16:53;25.90;52.50
53748;DHT22;39655;53.210;5.768;2022-09-12T16:19:19;25.70;53.10
53748;DHT22;39655;53.210;5.768;2022-09-12T16:21:45;25.70;53.40
53748;DHT22;39655;53.210;5.768;2022-09-12T16:24:11;25.60;53.40
53748;DHT22;39655;53.210;5.768;2022-09-12T16:26:36;25.40;54.40
53748;DHT22;39655;53.210;5.768;2022-09-12T16:29:02;25.40;54.70
53748;DHT22;39655;53.210;5.768;2022-09-12T16:31:28;25.50;55.90
53748;DHT22;39655;53.210;5.768;2022-09-12T16:33:53;25.70;54.40
53748;DHT22;39655;53.210;5.768;2022-09-12T16:36:20;26.10;53.30
53748;DHT22;39655;53.210;5.768;2022-09-12T16:38:51;26.30;52.10
53748;DHT22;39655;53.210;5.768;2022-09-12T16:41:19;26.50;51.80
53748;DHT22;39655;53.210;5.768;2022-09-12T16:43:45;26.60;52.10
53748;DHT22;39655;53.210;5.768;2022-09-12T16:46:21;26.60;51.70
53748;DHT22;39655;53.210;5.768;2022-09-12T16:48:49;26.70;51.30
53748;DHT22;39655;53.210;5.768;2022-09-12T16:51:30;26.60;51.20
53748;DHT22;39655;53.210;5.768;2022-09-12T16:53:56;26.30;52.80
53748;DHT22;39655;53.210;5.768;2022-09-12T16:56:23;25.80;52.90
53748;DHT22;39655;53.210;5.768;2022-09-12T16:58:49;25.30;54.60
53748;DHT22;39655;53.210;5.768;2022-09-12T17:01:17;25.00;55.20
53748;DHT22;39655;53.210;5.768;2022-09-12T17:03:44;24.60;56.20
53748;DHT22;39655;53.210;5.768;2022-09-12T17:06:12;24.40;57.30
53748;DHT22;39655;53.210;5.768;2022-09-12T17:08:43;24.10;58.30
53748;DHT22;39655;53.210;5.768;2022-09-12T17:11:15;24.00;58.30
53748;DHT22;39655;53.210;5.768;2022-09-12T17:13:52;23.90;58.60
53748;DHT22;39655;53.210;5.768;2022-09-12T17:16:27;23.90;58.60
53748;DHT22;39655;53.210;5.768;2022-09-12T17:18:53;23.80;59.10
53748;DHT22;39655;53.210;5.768;2022-09-12T17:21:19;23.70;59.20
53748;DHT22;39655;53.210;5.768;2022-09-12T17:23:46;23.70;59.90
53748;DHT22;39655;53.210;5.768;2022-09-12T17:26:11;23.70;59.80
53748;DHT22;39655;53.210;5.768;2022-09-12T17:28:38;23.70;59.90
53748;DHT22;39655;53.210;5.768;2022-09-12T17:31:09;23.60;60.20
53748;DHT22;39655;53.210;5.768;2022-09-12T17:33:35;23.50;61.00
53748;DHT22;39655;53.210;5.768;2022-09-12T17:36:06;23.40;62.10
53748;DHT22;39655;53.210;5.768;2022-09-12T17:38:34;23.30;62.70
53748;DHT22;39655;53.210;5.768;2022-09-12T17:41:08;23.10;63.00
53748;DHT22;39655;53.210;5.768;2022-09-12T17:43:35;23.10;63.60
53748;DHT22;39655;53.210;5.768;2022-09-12T17:46:03;23.00;64.40
53748;DHT22;39655;53.210;5.768;2022-09-12T17:48:29;22.90;64.70
53748;DHT22;39655;53.210;5.768;2022-09-12T17:50:55;22.80;64.40
53748;DHT22;39655;53.210;5.768;2022-09-12T17:53:21;22.80;64.50
53748;DHT22;39655;53.210;5.768;2022-09-12T17:55:47;22.80;64.60
53748;DHT22;39655;53.210;5.768;2022-09-12T17:58:12;22.70;64.60
53748;DHT22;39655;53.210;5.768;2022-09-12T18:00:38;22.70;64.40
53748;DHT22;39655;53.210;5.768;2022-09-12T18:03:23;22.70;64.40
53748;DHT22;39655;53.210;5.768;2022-09-12T18:05:53;22.60;64.50
53748;DHT22;39655;53.210;5.768;2022-09-12T18:08:20;22.60;64.80
53748;DHT22;39655;53.210;5.768;2022-09-12T18:10:49;22.40;65.50
53748;DHT22;39655;53.210;5.768;2022-09-12T18:13:15;22.40;66.00
53748;DHT22;39655;53.210;5.768;2022-09-12T18:15:41;22.30;66.10
53748;DHT22;39655;53.210;5.768;2022-09-12T18:18:07;22.30;66.30